Text Box: All records at near 07:00 local time
Kleivo 1 weather for Apr 2011
Updated 02.05.2011 22:09:57 Month no. 53
Obs.
Da.
Temp. Dew Point Precip. Wind
Speed
Wind gusts Cloud cover Press. Humidity Wind dir. Sunny OPT
01.04.2011 5,9 1,8 0,5 14,5 14,5 1 985,1 75,0 135,0   55,0 %
02.04.2011 9,2 6,4 10,4 9,7 11,3 1 986,1 83,0 180,0   52,5 %
03.04.2011 3,8 2,2 0,0 1,6 1,6 1 988,5 89,0 157,5   60,0 %
04.04.2011 4,1 2,4 1,5 0,0 3,2 1 986,8 89,0     60,0 %
05.04.2011 5,9 4,2 14,5 11,3 12,9 1 984,1 89,0 157,5   45,0 %
06.04.2011 6,2 4,5 12,2 0,0 0,0 1 988,1 89,0     52,5 %
07.04.2011 4,4 2,8 4,6 1,6 1,6 1 989,8 89,0 315,0   57,5 %
08.04.2011 6,9 5,4 7,1 4,8 4,8 1 989,5 90,0 315,0   55,0 %
09.04.2011 -0,1 -1,8 0,0 0,0 0,0 1 1005,8 88,0     55,0 %
10.04.2011 1,6 0,0 0,0 0,0 0,0 1 1006,8 89,0     57,5 %
11.04.2011 7,9 3,6 10,9 8,0 8,0 1 997,6 74,0 135,0   52,5 %
12.04.2011 3,9 2,3 0,5 3,2 8,0 1 992,2 89,0 315,0   60,0 %
13.04.2011 0,7 -0,9 0,0 0,0 0,0 1 997,6 89,0     57,5 %
14.04.2011 6,0 1,7 5,1 11,3 11,3 1 994,6 74,0 157,5   52,5 %
15.04.2011 5,9 4,2 1,5 4,8 4,8 1 998,0 89,0 157,5   60,0 %
16.04.2011 5,6 4,1 1,5 8,0 8,0 1 997,0 90,0 157,5   57,5 %
17.04.2011 5,9 4,2 1,5 0,0 0,0 1 1001,7 89,0     62,5 %
18.04.2011 5,1 3,4 1,5   3,2 1 1005,1 89,0      
19.04.2011 5,8 2,6 1,5 0,0 1,6 1 999,3 80,0     62,5 %
20.04.2011 4,4 2,6 1,5 0,0 0,0 1 999,7 88,0     60,0 %
21.04.2011 6,3 3,8 1,5 0,0 1,6 1 998,0 84,0     62,5 %
22.04.2011 8,1 5,2 1,5 0,0 0,0 1 998,3 82,0     65,0 %
23.04.2011 14,4 4,7 1,5 20,9 20,9 1 1000,0 52,0 135,0   57,5 %
24.04.2011 14,1 3,6 1,5 14,5 14,5 1 1000,0 49,0 157,5   62,5 %
25.04.2011 7,3 4,9 1,5 0,0 0,0 1 1005,1 85,0     62,5 %
26.04.2011 3,9 2,1 1,5 1,6 0,0 1 1009,8 88,0 0,0   60,0 %
27.04.2011 2,9 0,9 1,5 0,0 0,0 1 1008,1 87,0     60,0 %
28.04.2011 2,5 0,6 1,5 0,0 0,0 1 1008,1 87,0     60,0 %
29.04.2011 5,6 2,0 1,5   0,0 1 1008,1 0,0      
30.04.2011 6,9 2,8 1,5   3,2 1 1006,4 75,0      
                       
Avrg/Sum 5,7 2,9 91,3 4,3 4,5 1,0 997,8 80,3 176,8   58,0 %